createdAt,value
2018-02-27T04:32:35.383Z,71.30
2018-02-27T04:35:09.254Z,71.50
2018-02-27T04:37:43.918Z,71.30
2018-02-27T04:40:18.416Z,70.90
2018-02-27T04:42:56.385Z,71.20
2018-02-27T04:45:30.117Z,71.20
2018-02-27T04:48:04.764Z,70.40
2018-02-27T04:50:38.456Z,70.20
2018-02-27T04:53:13.092Z,70.10
2018-02-27T04:55:47.852Z,70.60
2018-02-27T04:58:35.166Z,70.50
2018-02-27T05:01:08.993Z,70.40
2018-02-27T05:03:43.592Z,70.90
2018-02-27T05:06:17.392Z,70.80
2018-02-27T05:08:51.188Z,71.90
2018-02-27T05:11:24.921Z,70.90
2018-02-27T05:13:58.785Z,70.60
2018-02-27T05:16:33.323Z,72.40
2018-02-27T05:19:07.148Z,72.40
2018-02-27T05:21:41.001Z,71.50
2018-02-27T05:24:14.732Z,71.60
2018-02-27T05:26:48.597Z,70.20
2018-02-27T05:29:23.146Z,71.00
2018-02-27T05:31:56.989Z,71.00
2018-02-27T05:34:31.483Z,72.20
2018-02-27T05:37:05.266Z,72.10
2018-02-27T05:39:38.924Z,73.30
2018-02-27T05:42:12.816Z,72.10
2018-02-27T05:44:53.862Z,73.30
2018-02-27T05:47:27.711Z,73.30
2018-02-27T05:50:01.541Z,71.40
2018-02-27T05:52:35.411Z,72.60
2018-02-27T05:55:09.171Z,71.50
2018-02-27T05:57:42.978Z,72.50
2018-02-27T06:00:17.127Z,72.60
2018-02-27T06:02:51.277Z,71.80
2018-02-27T06:05:26.264Z,72.00
2018-02-27T06:08:00.098Z,71.50
2018-02-27T06:10:34.783Z,70.70
2018-02-27T06:13:08.595Z,71.30
2018-02-27T06:15:42.410Z,71.20
2018-02-27T06:18:16.097Z,71.70
2018-02-27T06:20:50.671Z,71.50
2018-02-27T06:23:25.275Z,72.00
2018-02-27T06:25:59.091Z,71.90
2018-02-27T06:28:32.995Z,71.50
2018-02-27T06:31:06.812Z,70.60
2018-02-27T06:33:43.706Z,71.90
2018-02-27T06:36:17.767Z,71.90
2018-02-27T06:38:53.512Z,70.10
2018-02-27T06:41:27.392Z,69.40
2018-02-27T06:44:01.205Z,69.20
2018-02-27T06:46:35.004Z,70.60
2018-02-27T06:49:09.566Z,68.30
2018-02-27T06:51:43.713Z,68.30
2018-02-27T06:54:17.548Z,68.80
2018-02-27T06:56:51.646Z,68.10
2018-02-27T06:59:27.074Z,65.90
2018-02-27T07:02:00.930Z,65.80
2018-02-27T07:04:35.461Z,66.00
2018-02-27T07:07:09.258Z,65.30
2018-02-27T07:09:43.016Z,65.70
2018-02-27T07:12:17.125Z,64.80
2018-02-27T07:14:50.968Z,63.30
2018-02-27T07:17:25.564Z,63.80
2018-02-27T07:19:59.381Z,63.70
2018-02-27T07:22:33.990Z,64.10
2018-02-27T07:25:08.625Z,64.50
2018-02-27T07:27:42.453Z,64.50
2018-02-27T07:30:16.187Z,64.10
2018-02-27T07:32:50.807Z,63.30
2018-02-27T07:35:24.740Z,63.30
2018-02-27T07:37:58.495Z,62.50
2018-02-27T07:40:33.182Z,63.70
2018-02-27T07:43:06.935Z,63.60
2018-02-27T07:45:40.657Z,63.40
2018-02-27T07:48:15.432Z,63.30
2018-02-27T07:50:49.299Z,63.30
2018-02-27T07:53:23.996Z,62.80
2018-02-27T07:55:57.850Z,62.70
2018-02-27T07:58:31.716Z,63.60
2018-02-27T08:01:06.392Z,62.80
2018-02-27T08:03:41.772Z,62.90
2018-02-27T08:06:16.551Z,62.80
2018-02-27T08:08:51.417Z,63.00
2018-02-27T08:11:25.278Z,63.00
2018-02-27T08:13:59.168Z,63.00
2018-02-27T08:16:33.713Z,62.70
2018-02-27T08:19:07.582Z,62.70
2018-02-27T08:21:41.555Z,61.90
2018-02-27T08:24:15.379Z,62.10
2018-02-27T08:26:49.219Z,62.60
2018-02-27T08:29:23.038Z,61.70
2018-02-27T08:31:56.860Z,61.40
2018-02-27T08:34:31.399Z,61.30
2018-02-27T08:37:05.157Z,61.30
2018-02-27T08:39:39.757Z,60.80
2018-02-27T08:42:13.620Z,60.70
2018-02-27T08:44:48.120Z,61.80
2018-02-27T08:47:22.243Z,61.80
2018-02-27T08:49:56.813Z,59.60
2018-02-27T08:52:31.533Z,60.20
2018-02-27T08:55:05.358Z,60.20
2018-02-27T08:57:39.282Z,60.90
2018-02-27T09:00:14.061Z,61.40
2018-02-27T09:02:48.114Z,62.30
2018-02-27T09:05:21.822Z,59.00
2018-02-27T09:07:55.604Z,59.20
2018-02-27T09:10:30.201Z,58.00
2018-02-27T09:13:05.198Z,58.00
2018-02-27T09:15:38.838Z,57.60
2018-02-27T09:18:12.769Z,57.60
2018-02-27T09:20:48.380Z,57.90
2018-02-27T09:23:22.202Z,57.60
2018-02-27T09:25:55.847Z,57.30
2018-02-27T09:28:29.678Z,56.40
2018-02-27T09:31:03.479Z,56.00
2018-02-27T09:33:37.243Z,55.30
2018-02-27T09:36:11.743Z,55.40
2018-02-27T09:38:45.636Z,55.40
2018-02-27T09:41:21.308Z,56.00
2018-02-27T09:43:55.887Z,54.80
2018-02-27T09:46:29.703Z,54.80
2018-02-27T09:49:03.749Z,54.60
2018-02-27T09:51:38.259Z,54.70
2018-02-27T09:54:13.402Z,54.10
2018-02-27T09:56:47.122Z,54.00
2018-02-27T09:59:21.081Z,52.90
2018-02-27T10:01:54.931Z,51.70
2018-02-27T10:04:28.929Z,51.60
2018-02-27T10:07:02.689Z,50.10
2018-02-27T10:09:37.333Z,44.30
2018-02-27T10:12:11.224Z,44.20
2018-02-27T10:14:45.849Z,43.60
2018-02-27T10:17:22.880Z,43.60
2018-02-27T10:19:56.733Z,43.50
2018-02-27T10:22:30.448Z,45.40
2018-02-27T10:25:07.312Z,46.40
2018-02-27T10:27:45.993Z,46.00
2018-02-27T10:30:20.861Z,45.90
2018-02-27T10:32:55.570Z,46.80
2018-02-27T10:35:29.308Z,48.20
2018-02-27T10:38:03.168Z,49.10
2018-02-27T10:40:37.081Z,49.10
2018-02-27T10:43:11.612Z,47.70
2018-02-27T10:45:53.177Z,47.70
2018-02-27T10:48:27.037Z,48.10
2018-02-27T10:51:00.865Z,48.50
2018-02-27T10:53:34.778Z,49.20
2018-02-27T10:56:08.552Z,47.80
2018-02-27T10:58:42.252Z,46.40
2018-02-27T11:01:22.723Z,46.90
2018-02-27T11:03:56.479Z,47.50
2018-02-27T11:06:30.298Z,47.30
2018-02-27T11:09:03.942Z,48.10
2018-02-27T11:11:37.748Z,48.70
2018-02-27T11:14:11.631Z,47.50
2018-02-27T11:16:45.581Z,46.60
2018-02-27T11:19:19.395Z,45.50
2018-02-27T11:21:54.095Z,45.60
2018-02-27T11:24:27.931Z,45.60
2018-02-27T11:27:01.684Z,43.00
2018-02-27T11:29:36.391Z,41.00
2018-02-27T11:32:10.151Z,40.90
2018-02-27T11:34:43.912Z,39.90
2018-02-27T11:37:18.757Z,40.90
2018-02-27T11:39:53.359Z,42.30
2018-02-27T11:42:27.135Z,42.30
2018-02-27T11:45:01.909Z,42.20
2018-02-27T11:47:35.626Z,42.20
2018-02-27T11:50:09.478Z,42.20
2018-02-27T11:52:45.297Z,43.00
2018-02-27T11:55:18.967Z,44.50
2018-02-27T11:57:52.819Z,44.20
2018-02-27T12:00:26.633Z,43.90
2018-02-27T12:03:01.205Z,44.80
2018-02-27T12:05:37.021Z,44.80
2018-02-27T12:08:11.790Z,43.90
2018-02-27T12:10:45.530Z,44.40
2018-02-27T12:13:19.570Z,44.30
2018-02-27T12:15:53.403Z,43.60
2018-02-27T12:18:27.921Z,42.20
2018-02-27T12:21:01.840Z,42.10
2018-02-27T12:23:35.659Z,40.70
2018-02-27T12:26:09.594Z,41.50
2018-02-27T12:28:43.392Z,41.60
2018-02-27T12:31:18.009Z,41.80
2018-02-27T12:33:51.744Z,41.70
2018-02-27T12:36:25.604Z,42.80
2018-02-27T12:38:59.455Z,42.80
2018-02-27T12:41:33.265Z,42.60
2018-02-27T12:44:06.980Z,42.60
2018-02-27T12:46:41.460Z,42.80
2018-02-27T12:49:16.048Z,43.40
2018-02-27T12:51:49.828Z,42.90
2018-02-27T12:54:23.540Z,44.00
2018-02-27T12:56:57.296Z,43.50
2018-02-27T12:59:30.893Z,44.40
2018-02-27T13:02:05.928Z,43.60
2018-02-27T13:04:39.804Z,44.50
2018-02-27T13:07:14.225Z,42.50
2018-02-27T13:09:51.540Z,42.50
2018-02-27T13:12:25.606Z,41.90
2018-02-27T13:14:59.327Z,42.00
2018-02-27T13:17:33.075Z,41.40
2018-02-27T13:20:06.932Z,41.60
2018-02-27T13:22:40.853Z,40.90
2018-02-27T13:25:14.600Z,41.10
2018-02-27T13:27:50.920Z,41.60
2018-02-27T13:30:25.562Z,41.10
2018-02-27T13:32:59.276Z,41.00
2018-02-27T13:35:33.092Z,41.70
2018-02-27T13:38:06.916Z,41.90
2018-02-27T13:40:40.668Z,42.80
2018-02-27T13:43:15.319Z,42.80
2018-02-27T13:45:49.177Z,42.70
2018-02-27T13:48:22.997Z,42.30
2018-02-27T13:50:56.870Z,42.20
2018-02-27T13:53:30.614Z,42.80
2018-02-27T13:56:04.681Z,43.20
2018-02-27T13:58:38.340Z,43.40
2018-02-27T14:01:14.133Z,43.80
2018-02-27T14:03:48.785Z,42.80
2018-02-27T14:06:22.768Z,42.70
2018-02-27T14:08:58.058Z,42.10
2018-02-27T14:11:32.128Z,42.00
2018-02-27T14:14:05.905Z,42.20
2018-02-27T14:16:39.656Z,41.70
2018-02-27T14:19:13.598Z,41.40
2018-02-27T14:21:48.017Z,41.40
2018-02-27T14:24:22.819Z,41.40
2018-02-27T14:26:57.441Z,39.90
2018-02-27T14:29:31.244Z,39.80
2018-02-27T14:32:05.092Z,40.40
2018-02-27T14:34:38.915Z,41.50
2018-02-27T14:37:13.355Z,41.60
2018-02-27T14:39:47.131Z,41.50
2018-02-27T14:42:20.865Z,41.30
2018-02-27T14:44:55.481Z,41.80
2018-02-27T14:47:29.256Z,41.80
2018-02-27T14:50:03.802Z,41.70
2018-02-27T14:52:37.532Z,41.60
2018-02-27T14:55:12.102Z,42.60
2018-02-27T14:57:47.373Z,42.70
2018-02-27T15:00:21.968Z,42.90
2018-02-27T15:02:56.546Z,41.70
2018-02-27T15:05:30.329Z,41.60
2018-02-27T15:08:05.153Z,42.10
2018-02-27T15:10:38.981Z,42.60
2018-02-27T15:13:12.854Z,42.40
2018-02-27T15:15:46.748Z,42.50
2018-02-27T15:18:21.410Z,42.60
2018-02-27T15:20:55.900Z,43.10
2018-02-27T15:23:31.186Z,43.00
2018-02-27T15:26:04.996Z,43.00
2018-02-27T15:28:39.584Z,43.90
2018-02-27T15:31:13.416Z,43.90
2018-02-27T15:33:47.377Z,43.60
2018-02-27T15:36:21.143Z,43.30
2018-02-27T15:38:55.793Z,43.10
2018-02-27T15:41:29.502Z,43.00
2018-02-27T15:44:03.207Z,43.10
2018-02-27T15:46:36.961Z,44.20
2018-02-27T15:49:11.946Z,43.50
2018-02-27T15:51:45.738Z,43.50
2018-02-27T15:54:19.864Z,43.00
2018-02-27T15:56:53.686Z,43.00
2018-02-27T15:59:27.589Z,43.30
2018-02-27T16:02:01.329Z,43.50
2018-02-27T16:04:35.128Z,43.80
2018-02-27T16:07:09.739Z,42.90
2018-02-27T16:09:44.422Z,42.10
2018-02-27T16:12:19.496Z,42.20
2018-02-27T16:14:53.339Z,42.20
2018-02-27T16:17:27.184Z,42.70
2018-02-27T16:20:01.771Z,43.20
2018-02-27T16:22:35.563Z,43.30
2018-02-27T16:25:09.363Z,42.50
2018-02-27T16:27:43.221Z,42.50
2018-02-27T16:30:16.993Z,42.30
2018-02-27T16:32:51.096Z,42.70
2018-02-27T16:35:26.040Z,42.70
2018-02-27T16:37:59.708Z,42.70
2018-02-27T16:40:33.594Z,42.50
2018-02-27T16:43:09.182Z,42.60
2018-02-27T16:45:42.989Z,42.60
2018-02-27T16:48:16.833Z,43.70
2018-02-27T16:50:50.671Z,43.90
2018-02-27T16:53:24.740Z,44.10
2018-02-27T16:55:58.586Z,43.90
2018-02-27T16:58:32.381Z,44.20
2018-02-27T17:01:06.174Z,44.20
2018-02-27T17:03:40.011Z,43.70
2018-02-27T17:06:13.832Z,43.70
2018-02-27T17:08:47.473Z,44.20
2018-02-27T17:11:21.640Z,43.80
2018-02-27T17:13:55.556Z,43.40
2018-02-27T17:16:29.246Z,44.00
2018-02-27T17:19:03.061Z,45.00
2018-02-27T17:21:36.965Z,44.50
2018-02-27T17:24:11.523Z,45.00
2018-02-27T17:26:45.236Z,44.80
2018-02-27T17:29:19.865Z,44.50
2018-02-27T17:31:54.359Z,44.90
2018-02-27T17:34:28.616Z,44.80
2018-02-27T17:37:02.447Z,46.10
2018-02-27T17:39:36.275Z,45.70
2018-02-27T17:42:12.052Z,45.70
2018-02-27T17:44:46.472Z,46.00
2018-02-27T17:47:21.099Z,45.40
2018-02-27T17:49:55.731Z,47.30
2018-02-27T17:52:29.449Z,46.70
2018-02-27T17:55:03.290Z,46.40
2018-02-27T17:57:37.136Z,46.50
2018-02-27T18:00:11.672Z,47.20
2018-02-27T18:02:45.416Z,47.10
2018-02-27T18:05:19.197Z,46.20
2018-02-27T18:07:55.742Z,47.10
2018-02-27T18:10:29.552Z,47.10
2018-02-27T18:13:04.179Z,46.70
2018-02-27T18:15:39.706Z,46.70
2018-02-27T18:18:15.482Z,47.50
2018-02-27T18:20:51.479Z,47.50
2018-02-27T18:23:25.240Z,47.30
2018-02-27T18:26:01.809Z,46.80
2018-02-27T18:28:35.597Z,46.80
2018-02-27T18:31:12.141Z,47.90
2018-02-27T18:33:48.934Z,48.00
2018-02-27T18:36:22.751Z,47.40
2018-02-27T18:38:56.671Z,47.40
2018-02-27T18:41:31.303Z,48.90
2018-02-27T18:44:05.310Z,48.90
2018-02-27T18:46:39.199Z,48.00
2018-02-27T18:49:13.005Z,47.90
2018-02-27T18:51:47.647Z,48.30
2018-02-27T18:54:21.369Z,48.20
2018-02-27T18:56:55.240Z,49.00
2018-02-27T18:59:29.049Z,48.80
2018-02-27T19:02:04.114Z,48.80
2018-02-27T19:04:37.999Z,48.40
2018-02-27T19:07:11.860Z,49.10
2018-02-27T19:09:45.734Z,49.40
2018-02-27T19:12:19.537Z,49.80
2018-02-27T19:14:53.360Z,49.00
2018-02-27T19:17:27.972Z,49.90
2018-02-27T19:20:01.766Z,49.90
2018-02-27T19:22:35.565Z,48.90
2018-02-27T19:25:09.523Z,49.30
2018-02-27T19:27:44.207Z,49.70
2018-02-27T19:30:18.040Z,49.60
2018-02-27T19:32:51.796Z,49.90
2018-02-27T19:35:25.656Z,50.40
2018-02-27T19:37:59.440Z,50.00
2018-02-27T19:40:33.263Z,49.90
2018-02-27T19:43:07.115Z,49.90
2018-02-27T19:45:40.856Z,49.70
2018-02-27T19:48:14.676Z,50.10
2018-02-27T19:50:49.272Z,50.30
2018-02-27T19:53:23.267Z,50.20
2018-02-27T19:55:58.535Z,50.40
2018-02-27T19:58:33.936Z,50.40
2018-02-27T20:01:08.636Z,50.60
2018-02-27T20:03:42.532Z,50.60
2018-02-27T20:06:16.424Z,50.70
2018-02-27T20:08:51.053Z,50.40
2018-02-27T20:11:25.960Z,50.60
2018-02-27T20:13:59.869Z,50.60
2018-02-27T20:16:33.608Z,51.00
2018-02-27T20:19:07.442Z,50.40
2018-02-27T20:21:41.224Z,50.10
2018-02-27T20:24:18.742Z,50.10
2018-02-27T20:26:52.300Z,50.40
2018-02-27T20:29:26.008Z,50.30
2018-02-27T20:31:59.831Z,50.50
2018-02-27T20:34:33.624Z,50.50
2018-02-27T20:37:08.231Z,50.40
2018-02-27T20:39:42.070Z,50.40
2018-02-27T20:42:15.936Z,50.10
2018-02-27T20:44:49.737Z,50.00
2018-02-27T20:47:24.552Z,49.50
2018-02-27T20:49:58.622Z,49.30
2018-02-27T20:52:32.486Z,50.10
2018-02-27T20:55:06.337Z,49.90
2018-02-27T20:57:40.151Z,49.90
2018-02-27T21:00:14.158Z,49.70
2018-02-27T21:02:47.828Z,49.70
2018-02-27T21:05:21.624Z,50.00
2018-02-27T21:07:55.479Z,49.90
2018-02-27T21:10:29.340Z,49.70
2018-02-27T21:13:03.870Z,50.70
2018-02-27T21:15:37.684Z,50.60
2018-02-27T21:18:11.405Z,51.30
2018-02-27T21:20:45.221Z,52.30
2018-02-27T21:23:19.022Z,53.00
2018-02-27T21:25:52.992Z,54.20
2018-02-27T21:28:26.927Z,55.10
2018-02-27T21:31:00.749Z,55.20
2018-02-27T21:33:35.332Z,57.70
2018-02-27T21:36:09.108Z,57.60
2018-02-27T21:38:42.934Z,57.00
2018-02-27T21:41:16.768Z,56.70
2018-02-27T21:43:50.582Z,57.30
2018-02-27T21:46:25.262Z,57.50
2018-02-27T21:48:59.859Z,57.70
2018-02-27T21:51:33.954Z,57.70
2018-02-27T21:54:07.961Z,58.50
2018-02-27T21:56:42.788Z,58.90
2018-02-27T21:59:17.353Z,59.40
